createdAt,value
2018-01-06T00:01:21.027Z,96.55
2018-01-06T00:03:48.670Z,96.12
2018-01-06T00:06:16.247Z,95.79
2018-01-06T00:08:43.824Z,95.65
2018-01-06T00:11:11.454Z,95.57
2018-01-06T00:13:39.026Z,95.57
2018-01-06T00:16:06.631Z,95.66
2018-01-06T00:18:34.198Z,95.51
2018-01-06T00:21:01.811Z,95.45
2018-01-06T00:23:29.466Z,95.11
2018-01-06T00:25:57.159Z,95.17
2018-01-06T00:28:24.732Z,95.81
2018-01-06T00:30:52.314Z,95.70
2018-01-06T00:33:19.874Z,95.46
2018-01-06T00:35:47.442Z,95.46
2018-01-06T00:38:15.015Z,95.40
2018-01-06T00:40:43.500Z,95.64
2018-01-06T00:43:11.870Z,95.39
2018-01-06T00:45:40.231Z,95.15
2018-01-06T00:48:07.799Z,95.66
2018-01-06T00:50:36.313Z,95.75
2018-01-06T00:53:03.887Z,95.75
2018-01-06T00:55:32.379Z,95.80
2018-01-06T00:58:00.027Z,95.66
2018-01-06T01:00:27.599Z,95.17
2018-01-06T01:02:55.898Z,95.01
2018-01-06T01:05:24.236Z,95.54
2018-01-06T01:07:51.901Z,95.10
2018-01-06T01:10:20.299Z,95.19
2018-01-06T01:12:47.902Z,94.95
2018-01-06T01:15:15.458Z,95.08
2018-01-06T01:17:43.068Z,94.89
2018-01-06T01:20:10.629Z,94.93
2018-01-06T01:22:39.027Z,94.91
2018-01-06T01:25:06.595Z,94.91
2018-01-06T01:27:34.162Z,94.76
2018-01-06T01:30:01.789Z,94.83
2018-01-06T01:32:30.065Z,94.58
2018-01-06T01:34:58.452Z,94.78
2018-01-06T01:37:26.014Z,94.96
2018-01-06T01:39:53.570Z,95.14
2018-01-06T01:42:21.139Z,95.16
2018-01-06T01:44:49.543Z,95.21
2018-01-06T01:47:17.890Z,95.24
2018-01-06T01:49:46.363Z,95.23
2018-01-06T01:52:14.932Z,95.34
2018-01-06T01:54:42.505Z,95.40
2018-01-06T01:57:10.986Z,95.45
2018-01-06T01:59:38.567Z,95.46
2018-01-06T02:02:06.172Z,95.52
2018-01-06T02:04:34.598Z,95.43
2018-01-06T02:07:02.982Z,95.33
2018-01-06T02:09:30.915Z,95.53
2018-01-06T02:11:58.492Z,95.44
2018-01-06T02:14:26.096Z,95.26
2018-01-06T02:16:53.677Z,95.12
2018-01-06T02:19:21.394Z,94.90
2018-01-06T02:21:48.962Z,95.02
2018-01-06T02:24:16.528Z,95.07
2018-01-06T02:26:44.109Z,94.93
2018-01-06T02:29:11.694Z,94.96
2018-01-06T02:31:40.072Z,94.86
2018-01-06T02:34:07.640Z,94.92
2018-01-06T02:36:35.237Z,94.94
2018-01-06T02:39:03.742Z,94.77
2018-01-06T02:41:32.146Z,94.34
2018-01-06T02:44:00.486Z,94.57
2018-01-06T02:46:28.871Z,93.83
2018-01-06T02:48:56.563Z,93.34
2018-01-06T02:51:24.126Z,93.50
2018-01-06T02:53:51.771Z,93.56
2018-01-06T02:56:19.338Z,93.52
2018-01-06T02:58:47.819Z,93.63
2018-01-06T03:01:15.490Z,93.26
2018-01-06T03:03:43.069Z,93.37
2018-01-06T03:06:10.642Z,93.16
2018-01-06T03:08:38.250Z,93.44
2018-01-06T03:11:05.853Z,93.08
2018-01-06T03:13:33.423Z,93.09
2018-01-06T03:16:01.030Z,93.26
2018-01-06T03:18:29.392Z,93.82
2018-01-06T03:20:57.790Z,93.79
2018-01-06T03:23:25.446Z,93.41
2018-01-06T03:25:53.028Z,93.45
2018-01-06T03:28:21.423Z,92.95
2018-01-06T03:30:49.898Z,92.77
2018-01-06T03:33:17.642Z,92.88
2018-01-06T03:35:45.215Z,92.65
2018-01-06T03:38:12.786Z,92.92
2018-01-06T03:40:40.420Z,92.94
2018-01-06T03:43:08.695Z,92.88
2018-01-06T03:45:36.358Z,92.59
2018-01-06T03:48:03.936Z,93.54
2018-01-06T03:50:31.574Z,93.06
2018-01-06T03:52:59.143Z,93.19
2018-01-06T03:55:26.731Z,93.02
2018-01-06T03:57:54.298Z,93.02
2018-01-06T04:00:21.858Z,92.99
2018-01-06T04:02:49.420Z,93.21
2018-01-06T04:05:16.991Z,93.66
2018-01-06T04:07:44.566Z,93.62
2018-01-06T04:10:12.127Z,93.15
2018-01-06T04:12:39.686Z,92.45
2018-01-06T04:15:07.260Z,93.09
2018-01-06T04:17:34.897Z,93.51
2018-01-06T04:20:03.290Z,92.92
2018-01-06T04:22:30.866Z,92.86
2018-01-06T04:24:58.453Z,92.88
2018-01-06T04:27:26.859Z,93.11
2018-01-06T04:29:55.326Z,93.53
2018-01-06T04:32:22.894Z,93.91
2018-01-06T04:34:50.467Z,94.27
2018-01-06T04:37:18.051Z,94.51
2018-01-06T04:39:45.714Z,94.69
2018-01-06T04:42:14.206Z,94.87
2018-01-06T04:44:41.801Z,95.07
2018-01-06T04:47:10.226Z,95.32
2018-01-06T04:49:37.810Z,95.50
2018-01-06T04:52:05.422Z,95.78
2018-01-06T04:54:33.922Z,96.09
2018-01-06T04:57:01.493Z,96.28
2018-01-06T04:59:29.960Z,96.06
2018-01-06T05:01:57.530Z,96.21
2018-01-06T05:04:25.107Z,96.13
2018-01-06T05:06:52.683Z,96.18
2018-01-06T05:09:21.170Z,96.26
2018-01-06T05:11:49.566Z,96.21
2018-01-06T05:14:17.971Z,96.38
2018-01-06T05:16:45.574Z,96.15
2018-01-06T05:19:14.564Z,96.15
2018-01-06T05:21:42.139Z,96.02
2018-01-06T05:24:10.659Z,95.70
2018-01-06T05:26:39.005Z,95.15
2018-01-06T05:29:07.267Z,95.06
2018-01-06T05:31:35.674Z,95.66
2018-01-06T05:34:03.244Z,95.73
2018-01-06T05:36:31.736Z,95.67
2018-01-06T05:39:00.169Z,95.77
2018-01-06T05:41:28.441Z,96.28
2018-01-06T05:43:56.830Z,96.18
2018-01-06T05:46:25.096Z,96.36
2018-01-06T05:48:52.666Z,96.45
2018-01-06T05:51:20.234Z,96.43
2018-01-06T05:53:47.805Z,96.50
2018-01-06T05:56:16.266Z,96.53
2018-01-06T05:58:44.610Z,96.64
2018-01-06T06:01:25.703Z,96.43
2018-01-06T06:03:53.265Z,96.50
2018-01-06T06:06:21.578Z,96.79
2018-01-06T06:08:49.850Z,96.76
2018-01-06T06:11:18.159Z,96.78
2018-01-06T06:13:46.563Z,96.74
2018-01-06T06:16:14.910Z,96.75
2018-01-06T06:18:43.242Z,96.80
2018-01-06T06:21:11.597Z,96.90
2018-01-06T06:23:39.159Z,96.99
2018-01-06T06:26:06.727Z,97.01
2018-01-06T06:28:34.364Z,97.04
2018-01-06T06:31:02.750Z,97.21
2018-01-06T06:33:30.329Z,97.15
2018-01-06T06:35:57.963Z,97.11
2018-01-06T06:38:25.566Z,97.31
2018-01-06T06:40:53.148Z,97.20
2018-01-06T06:43:20.745Z,97.17
2018-01-06T06:45:48.414Z,97.32
2018-01-06T06:48:16.003Z,97.60
2018-01-06T06:50:43.706Z,97.68
2018-01-06T06:53:12.242Z,97.45
2018-01-06T06:55:40.578Z,97.22
2018-01-06T06:58:08.933Z,97.27
2018-01-06T07:00:36.505Z,97.21
2018-01-06T07:03:04.166Z,97.22
2018-01-06T07:05:31.778Z,97.20
2018-01-06T07:07:59.350Z,97.13
2018-01-06T07:10:27.678Z,96.98
2018-01-06T07:12:55.242Z,96.76
2018-01-06T07:15:22.825Z,96.89
2018-01-06T07:17:51.293Z,97.80
2018-01-06T07:20:19.643Z,97.89
2018-01-06T07:22:47.256Z,98.03
2018-01-06T07:25:14.843Z,98.17
2018-01-06T07:27:42.419Z,97.93
2018-01-06T07:30:09.998Z,98.07
2018-01-06T07:32:37.571Z,98.20
2018-01-06T07:35:05.153Z,98.38
2018-01-06T07:37:32.855Z,98.24
2018-01-06T07:40:01.207Z,97.77
2018-01-06T07:42:28.795Z,97.57
2018-01-06T07:44:56.430Z,97.43
2018-01-06T07:47:24.086Z,96.66
2018-01-06T07:49:51.655Z,96.87
2018-01-06T07:52:20.038Z,96.65
2018-01-06T07:54:48.382Z,96.51
2018-01-06T07:57:15.967Z,97.12
2018-01-06T07:59:44.447Z,97.45
2018-01-06T08:02:12.984Z,97.27
2018-01-06T08:04:40.598Z,97.26
2018-01-06T08:07:09.067Z,97.10
2018-01-06T08:09:37.451Z,97.11
2018-01-06T08:12:05.123Z,96.77
2018-01-06T08:14:33.600Z,96.21
2018-01-06T08:17:01.984Z,96.35
2018-01-06T08:19:29.560Z,96.83
2018-01-06T08:21:57.203Z,96.61
2018-01-06T08:24:25.467Z,97.09
2018-01-06T08:26:53.047Z,97.51
2018-01-06T08:29:20.715Z,98.04
2018-01-06T08:31:48.320Z,97.88
2018-01-06T08:34:16.682Z,97.87
2018-01-06T08:36:45.066Z,97.39
2018-01-06T08:39:13.587Z,97.41
2018-01-06T08:41:41.273Z,97.15
2018-01-06T08:44:08.862Z,96.90
2018-01-06T08:46:36.453Z,96.98
2018-01-06T08:49:05.015Z,97.43
2018-01-06T08:51:33.563Z,97.26
2018-01-06T08:54:02.057Z,97.52
2018-01-06T08:56:29.634Z,97.47
2018-01-06T08:58:57.270Z,97.26
2018-01-06T09:01:24.847Z,97.10
2018-01-06T09:03:53.482Z,97.10
2018-01-06T09:06:21.061Z,97.56
2018-01-06T09:08:48.675Z,97.06
2018-01-06T09:11:16.447Z,97.04
2018-01-06T09:13:45.414Z,97.17
2018-01-06T09:16:13.886Z,97.32
2018-01-06T09:18:41.600Z,97.41
2018-01-06T09:21:10.034Z,97.48
2018-01-06T09:23:37.639Z,97.38
2018-01-06T09:26:05.211Z,97.39
2018-01-06T09:28:32.785Z,97.18
2018-01-06T09:31:00.359Z,96.81
2018-01-06T09:33:28.447Z,96.71
2018-01-06T09:35:56.121Z,95.98
2018-01-06T09:38:23.828Z,96.03
2018-01-06T09:40:52.475Z,95.33
2018-01-06T09:43:20.053Z,94.88
2018-01-06T09:45:47.709Z,94.83
2018-01-06T09:48:15.462Z,94.54
2018-01-06T09:50:43.047Z,94.13
2018-01-06T09:53:11.194Z,93.52
2018-01-06T09:55:38.776Z,92.96
2018-01-06T09:58:06.355Z,92.54
2018-01-06T10:00:33.930Z,91.06
2018-01-06T10:03:01.506Z,89.96
2018-01-06T10:05:29.087Z,89.81
2018-01-06T10:07:56.771Z,89.59
2018-01-06T10:10:24.364Z,87.80
2018-01-06T10:12:51.940Z,85.72
2018-01-06T10:15:19.651Z,87.05
2018-01-06T10:17:48.020Z,86.13
2018-01-06T10:20:15.590Z,85.70
2018-01-06T10:22:43.994Z,86.85
2018-01-06T10:25:11.566Z,86.62
2018-01-06T10:27:40.030Z,85.91
2018-01-06T10:30:08.419Z,85.39
2018-01-06T10:32:35.989Z,84.78
2018-01-06T10:35:03.557Z,86.03
2018-01-06T10:37:31.126Z,85.67
2018-01-06T10:39:58.703Z,85.12
2018-01-06T10:42:27.121Z,85.72
2018-01-06T10:44:55.487Z,84.97
2018-01-06T10:47:23.087Z,83.30
2018-01-06T10:49:50.658Z,83.05
2018-01-06T10:52:19.034Z,81.47
2018-01-06T10:54:46.616Z,82.53
2018-01-06T10:57:14.191Z,82.48
2018-01-06T10:59:41.760Z,81.48
2018-01-06T11:02:09.343Z,82.68
2018-01-06T11:04:36.952Z,81.69
2018-01-06T11:07:04.525Z,81.07
2018-01-06T11:09:32.126Z,80.35
2018-01-06T11:11:59.703Z,81.58
2018-01-06T11:14:27.286Z,81.40
2018-01-06T11:16:54.918Z,80.84
2018-01-06T11:19:22.538Z,81.84
2018-01-06T11:21:50.854Z,81.24
2018-01-06T11:24:18.466Z,82.09
2018-01-06T11:26:46.997Z,81.87
2018-01-06T11:29:14.887Z,81.21
2018-01-06T11:31:42.463Z,79.62
2018-01-06T11:34:10.078Z,78.29
2018-01-06T11:36:37.755Z,79.18
2018-01-06T11:39:06.340Z,79.98
2018-01-06T11:41:35.261Z,80.82
2018-01-06T11:44:02.882Z,80.11
2018-01-06T11:46:30.446Z,79.01
2018-01-06T11:48:58.119Z,79.32
2018-01-06T11:51:25.784Z,77.64
2018-01-06T11:53:54.374Z,78.99
2018-01-06T11:56:22.885Z,79.11
2018-01-06T11:58:50.514Z,77.66
2018-01-06T12:01:18.092Z,77.33
2018-01-06T12:03:45.702Z,77.79
2018-01-06T12:06:14.259Z,75.88
2018-01-06T12:08:42.595Z,75.63
2018-01-06T12:11:13.140Z,75.18
2018-01-06T12:13:41.607Z,75.47
2018-01-06T12:16:09.990Z,74.70
2018-01-06T12:18:38.337Z,73.80
2018-01-06T12:21:05.965Z,75.60
2018-01-06T12:23:33.567Z,76.00
2018-01-06T12:26:02.041Z,75.45
2018-01-06T12:28:30.404Z,74.83
2018-01-06T12:30:58.781Z,73.47
2018-01-06T12:33:26.427Z,74.32
2018-01-06T12:35:54.983Z,72.62
2018-01-06T12:38:22.644Z,73.55
2018-01-06T12:40:50.313Z,74.32
2018-01-06T12:43:17.896Z,73.92
2018-01-06T12:45:45.539Z,73.59
2018-01-06T12:48:13.196Z,72.82
2018-01-06T12:50:40.818Z,73.74
2018-01-06T12:53:08.945Z,73.50
2018-01-06T12:55:36.527Z,73.75
2018-01-06T12:58:04.096Z,73.88
2018-01-06T13:00:31.710Z,73.42
2018-01-06T13:02:59.282Z,72.22
2018-01-06T13:05:26.899Z,72.36
2018-01-06T13:07:54.482Z,72.36
2018-01-06T13:10:22.047Z,72.58
2018-01-06T13:12:49.614Z,72.40
2018-01-06T13:15:17.279Z,72.85
2018-01-06T13:17:44.847Z,72.97
2018-01-06T13:20:12.429Z,73.21
2018-01-06T13:22:40.899Z,74.63
2018-01-06T13:25:08.476Z,74.00
2018-01-06T13:27:36.053Z,74.28
2018-01-06T13:30:03.665Z,75.41
2018-01-06T13:32:31.237Z,74.96
2018-01-06T13:34:58.807Z,75.85
2018-01-06T13:37:26.614Z,78.04
2018-01-06T13:39:55.458Z,75.61
2018-01-06T13:42:23.164Z,76.49
2018-01-06T13:44:51.956Z,76.20
2018-01-06T13:47:19.598Z,75.93
2018-01-06T13:49:47.276Z,76.63
2018-01-06T13:52:14.894Z,77.93
2018-01-06T13:54:42.511Z,77.51
2018-01-06T13:57:10.084Z,76.93
2018-01-06T13:59:37.682Z,77.69
2018-01-06T14:02:05.262Z,78.07
2018-01-06T14:04:33.121Z,77.85
2018-01-06T14:07:00.691Z,78.68
2018-01-06T14:09:28.315Z,78.57
2018-01-06T14:11:56.533Z,79.28
2018-01-06T14:14:25.045Z,79.60
2018-01-06T14:16:53.409Z,79.74
2018-01-06T14:19:20.986Z,80.50
2018-01-06T14:21:49.483Z,79.39
2018-01-06T14:24:17.886Z,79.54
2018-01-06T14:26:46.319Z,79.63
2018-01-06T14:29:14.911Z,82.14
2018-01-06T14:31:43.399Z,83.78
2018-01-06T14:34:11.033Z,83.85
2018-01-06T14:36:38.640Z,84.85
2018-01-06T14:39:06.254Z,84.75
2018-01-06T14:41:33.827Z,85.48
2018-01-06T14:44:02.434Z,85.26
2018-01-06T14:46:30.005Z,83.01
2018-01-06T14:48:57.582Z,85.09
2018-01-06T14:51:25.928Z,85.55
2018-01-06T14:53:53.497Z,84.92
2018-01-06T14:56:21.163Z,85.61
2018-01-06T14:58:49.633Z,85.62
2018-01-06T15:01:17.202Z,85.90
2018-01-06T15:03:44.824Z,86.82
2018-01-06T15:06:15.908Z,87.07
2018-01-06T15:08:43.524Z,86.99
2018-01-06T15:11:11.100Z,87.75
2018-01-06T15:13:38.678Z,87.33
2018-01-06T15:16:06.255Z,87.48
2018-01-06T15:18:33.814Z,87.70
2018-01-06T15:21:01.393Z,88.08
2018-01-06T15:23:29.076Z,88.81
2018-01-06T15:25:56.759Z,88.39
2018-01-06T15:28:24.426Z,88.20
2018-01-06T15:30:52.058Z,88.42
2018-01-06T15:33:19.664Z,89.27
2018-01-06T15:35:47.243Z,89.50
2018-01-06T15:38:14.826Z,89.59
2018-01-06T15:40:42.459Z,89.56
2018-01-06T15:43:10.039Z,89.59
2018-01-06T15:45:38.723Z,89.42
2018-01-06T15:48:06.306Z,89.80
2018-01-06T15:50:34.029Z,90.47
2018-01-06T15:53:01.642Z,90.71
2018-01-06T15:55:29.314Z,90.77
2018-01-06T15:57:56.932Z,90.98
2018-01-06T16:00:24.510Z,90.91
2018-01-06T16:02:52.084Z,91.23
2018-01-06T16:05:19.750Z,91.21
2018-01-06T16:07:48.132Z,91.64
2018-01-06T16:10:16.598Z,91.58
2018-01-06T16:12:44.166Z,90.95
2018-01-06T16:15:11.831Z,91.36
2018-01-06T16:17:39.533Z,90.92
2018-01-06T16:20:07.515Z,90.92
2018-01-06T16:22:35.091Z,91.20
2018-01-06T16:25:02.671Z,91.40
2018-01-06T16:27:30.250Z,89.86
2018-01-06T16:29:57.876Z,89.45
2018-01-06T16:32:25.460Z,89.85
2018-01-06T16:34:53.022Z,89.37
2018-01-06T16:37:21.530Z,89.33
2018-01-06T16:42:22.906Z,90.46
2018-01-06T16:44:51.366Z,90.38
2018-01-06T16:47:18.982Z,90.40
2018-01-06T16:49:46.568Z,91.19
2018-01-06T16:52:14.167Z,89.36
2018-01-06T16:54:42.667Z,89.64
2018-01-06T16:57:11.091Z,88.95
2018-01-06T16:59:39.498Z,88.06
2018-01-06T17:02:07.104Z,88.01
2018-01-06T17:04:35.744Z,88.79
2018-01-06T17:07:04.172Z,89.64
2018-01-06T17:09:31.787Z,89.24
2018-01-06T17:11:59.373Z,90.96
2018-01-06T17:14:27.924Z,91.53
2018-01-06T17:16:56.595Z,92.25
2018-01-06T17:19:25.550Z,91.07
2018-01-06T17:21:53.139Z,90.11
2018-01-06T17:24:20.719Z,90.29
2018-01-06T17:26:48.294Z,90.76
2018-01-06T17:29:16.282Z,91.11
2018-01-06T17:31:44.658Z,91.24
2018-01-06T17:34:12.872Z,91.28
2018-01-06T17:36:40.460Z,91.63
2018-01-06T17:39:08.866Z,91.97
2018-01-06T17:41:37.466Z,91.75
2018-01-06T17:44:06.622Z,92.10
2018-01-06T17:46:35.155Z,92.44
2018-01-06T17:49:02.820Z,92.17
2018-01-06T17:51:30.531Z,92.09
2018-01-06T17:53:58.108Z,92.32
2018-01-06T17:56:25.695Z,92.42
2018-01-06T17:58:53.275Z,92.37
2018-01-06T18:01:20.857Z,93.08
2018-01-06T18:03:48.434Z,93.48
2018-01-06T18:06:16.023Z,93.22
2018-01-06T18:08:44.387Z,93.82
2018-01-06T18:11:12.024Z,93.43
2018-01-06T18:13:40.614Z,93.38
2018-01-06T18:16:08.206Z,93.07
2018-01-06T18:18:36.680Z,93.08
2018-01-06T18:21:04.255Z,93.14
2018-01-06T18:23:31.914Z,92.56
2018-01-06T18:25:59.496Z,92.67
2018-01-06T18:28:27.178Z,92.41
2018-01-06T18:30:54.791Z,92.46
2018-01-06T18:33:23.182Z,92.63
2018-01-06T18:35:50.820Z,91.89
2018-01-06T18:38:18.413Z,90.91
2018-01-06T18:40:46.074Z,90.09
2018-01-06T18:43:14.559Z,91.52
2018-01-06T18:45:42.220Z,92.27
2018-01-06T18:48:09.803Z,92.09
2018-01-06T18:50:37.475Z,92.23
2018-01-06T18:53:05.174Z,92.86
2018-01-06T18:55:32.750Z,92.45
2018-01-06T18:58:00.382Z,92.43
2018-01-06T19:00:27.968Z,92.75
2018-01-06T19:02:55.651Z,92.92
2018-01-06T19:05:23.242Z,92.89
2018-01-06T19:07:50.831Z,92.90
2018-01-06T19:10:18.432Z,93.14
2018-01-06T19:12:46.867Z,93.28
2018-01-06T19:15:14.486Z,93.75
2018-01-06T19:17:42.147Z,94.44
2018-01-06T19:20:09.726Z,94.48
2018-01-06T19:22:37.315Z,94.45
2018-01-06T19:25:04.928Z,94.32
2018-01-06T19:27:32.594Z,94.37
2018-01-06T19:30:00.999Z,94.44
2018-01-06T19:32:28.581Z,94.38
2018-01-06T19:34:56.166Z,94.52
2018-01-06T19:37:23.739Z,94.69
2018-01-06T19:39:51.314Z,94.94
2018-01-06T19:42:18.906Z,95.17
2018-01-06T19:44:46.485Z,95.17
2018-01-06T19:47:14.098Z,95.17
2018-01-06T19:49:41.684Z,95.08
2018-01-06T19:52:09.323Z,94.99
2018-01-06T19:54:36.899Z,95.05
2018-01-06T19:57:04.474Z,94.76
2018-01-06T19:59:32.056Z,94.54
2018-01-06T20:01:59.635Z,94.30
2018-01-06T20:04:27.223Z,94.39
2018-01-06T20:06:54.803Z,94.59
2018-01-06T20:09:22.964Z,94.72
2018-01-06T20:11:50.543Z,94.84
2018-01-06T20:14:18.394Z,95.04
2018-01-06T20:16:46.786Z,95.13
2018-01-06T20:19:15.872Z,95.20
2018-01-06T20:21:43.449Z,95.37
2018-01-06T20:24:11.083Z,95.22
2018-01-06T20:26:38.752Z,95.21
2018-01-06T20:29:06.336Z,95.29
2018-01-06T20:31:33.925Z,95.21
2018-01-06T20:34:01.503Z,95.20
2018-01-06T20:36:30.120Z,95.25
2018-01-06T20:38:58.590Z,95.10
2018-01-06T20:41:26.231Z,95.13
2018-01-06T20:43:53.865Z,94.94
2018-01-06T20:46:21.448Z,94.80
2018-01-06T20:48:49.088Z,94.71
2018-01-06T20:51:16.711Z,94.53
2018-01-06T20:53:44.292Z,94.77
2018-01-06T20:56:11.992Z,94.68
2018-01-06T20:58:39.571Z,94.73
2018-01-06T21:01:07.151Z,94.73
2018-01-06T21:03:34.831Z,94.93
2018-01-06T21:06:02.455Z,94.75
2018-01-06T21:08:30.047Z,94.91
2018-01-06T21:10:57.634Z,95.07
2018-01-06T21:13:25.219Z,94.87
2018-01-06T21:15:52.794Z,94.64
2018-01-06T21:18:20.407Z,94.62
2018-01-06T21:20:48.109Z,94.49
2018-01-06T21:23:15.721Z,94.27
2018-01-06T21:25:43.340Z,94.30
2018-01-06T21:28:10.919Z,94.11
2018-01-06T21:30:38.503Z,93.94
2018-01-06T21:33:06.083Z,93.94
2018-01-06T21:35:33.727Z,93.44
2018-01-06T21:38:01.310Z,92.88
2018-01-06T21:40:28.914Z,92.97
2018-01-06T21:42:56.510Z,92.99
2018-01-06T21:45:24.918Z,92.04
2018-01-06T21:47:52.530Z,91.49
2018-01-06T21:50:20.106Z,91.68
2018-01-06T21:52:47.766Z,92.03
2018-01-06T21:55:16.357Z,91.73
2018-01-06T21:57:44.017Z,92.12
2018-01-06T22:00:11.690Z,91.91
2018-01-06T22:02:39.314Z,91.80
2018-01-06T22:05:06.986Z,92.01
2018-01-06T22:07:34.673Z,91.45
2018-01-06T22:10:02.443Z,91.71
2018-01-06T22:12:30.117Z,91.82
2018-01-06T22:14:57.730Z,91.69
2018-01-06T22:17:25.319Z,91.33
2018-01-06T22:19:52.910Z,91.06
2018-01-06T22:22:20.487Z,91.53
2018-01-06T22:24:48.067Z,91.29
2018-01-06T22:27:15.679Z,91.39
2018-01-06T22:29:43.343Z,91.14
2018-01-06T22:32:10.945Z,91.16
2018-01-06T22:34:38.522Z,90.50
2018-01-06T22:37:06.147Z,90.56
2018-01-06T22:39:34.533Z,90.78
2018-01-06T22:42:03.040Z,90.60
2018-01-06T22:44:30.614Z,90.79
2018-01-06T22:46:58.194Z,90.56
2018-01-06T22:49:25.836Z,90.84
2018-01-06T22:51:53.414Z,90.80
2018-01-06T22:54:21.092Z,91.23
2018-01-06T22:56:48.754Z,91.06
2018-01-06T22:59:16.435Z,90.72
2018-01-06T23:01:44.011Z,90.71
2018-01-06T23:04:11.640Z,90.43
2018-01-06T23:06:39.303Z,90.12
2018-01-06T23:09:07.758Z,90.17
2018-01-06T23:11:35.330Z,89.96
2018-01-06T23:14:02.969Z,89.93
2018-01-06T23:16:30.551Z,90.34
2018-01-06T23:18:58.235Z,91.16
2018-01-06T23:21:25.896Z,90.85
2018-01-06T23:23:53.554Z,91.38
2018-01-06T23:26:21.188Z,91.24
2018-01-06T23:28:48.864Z,90.50
2018-01-06T23:31:16.515Z,90.38
2018-01-06T23:33:44.099Z,90.74
2018-01-06T23:36:11.719Z,90.81
2018-01-06T23:38:39.306Z,90.42
2018-01-06T23:41:06.890Z,90.18
2018-01-06T23:43:34.575Z,89.65
2018-01-06T23:46:02.930Z,89.88
2018-01-06T23:48:31.310Z,90.49
2018-01-06T23:50:59.523Z,89.88
2018-01-06T23:53:27.098Z,89.48
2018-01-06T23:55:54.670Z,88.79
2018-01-06T23:58:22.242Z,88.68
